Time;durP1;ratioP1;P1;durP2;ratioP2;P2;SDS_P1;SDS_P2;PMS_P1;PMS_P2;Temp;Humidity;BMP_temperature;BMP_pressure;BME280_temperature;BME280_humidity;BME280_pressure;Samples;Min_cycle;Max_cycle;Signal;HPM_P1;HPM_P2
2023/04/27 00:00:26;;;;;;;2.57;2.00;;;13.10;75.70;;;;;;6085880;23;20395;-44
2023/04/27 00:02:54;;;;;;;2.40;1.87;;;13.10;75.70;;;;;;6087346;23;20372;-44
2023/04/27 00:05:26;;;;;;;2.53;1.53;;;13.10;75.50;;;;;;6086831;23;20460;-44
2023/04/27 00:07:55;;;;;;;2.10;1.60;;;13.10;75.70;;;;;;6086391;23;20828;-45
2023/04/27 00:10:25;;;;;;;2.53;1.77;;;13.10;76.90;;;;;;6086600;23;20449;-44
2023/04/27 00:12:54;;;;;;;2.60;1.73;;;13.10;75.80;;;;;;6109836;23;20422;-44
2023/04/27 00:15:22;;;;;;;3.23;2.00;;;13.10;75.80;;;;;;6087277;23;20408;-45
2023/04/27 00:17:51;;;;;;;2.60;1.77;;;13.10;75.70;;;;;;6086755;23;20415;-45
2023/04/27 00:20:19;;;;;;;2.10;1.90;;;13.10;75.70;;;;;;6086938;23;20427;-44
2023/04/27 00:22:48;;;;;;;2.63;1.77;;;13.10;75.90;;;;;;6085240;22;20435;-44
2023/04/27 00:25:16;;;;;;;2.73;2.20;;;13.10;75.70;;;;;;6086039;23;20560;-44
2023/04/27 00:27:46;;;;;;;2.40;2.00;;;13.10;75.80;;;;;;6084881;23;21019;-44
2023/04/27 00:30:15;;;;;;;2.77;1.73;;;13.10;75.80;;;;;;6086248;23;21091;-44
2023/04/27 00:32:43;;;;;;;2.87;2.03;;;13.10;75.70;;;;;;6087292;23;20431;-45
2023/04/27 00:35:12;;;;;;;4.67;2.07;;;13.10;75.70;;;;;;6086831;23;20443;-43
2023/04/27 00:37:42;;;;;;;2.00;1.40;;;13.10;75.80;;;;;;6085798;23;20754;-44
2023/04/27 00:40:11;;;;;;;4.40;2.30;;;13.10;75.70;;;;;;6087377;23;20387;-44
2023/04/27 00:42:40;;;;;;;5.53;1.93;;;13.10;75.80;;;;;;6085026;23;20436;-44
2023/04/27 00:45:12;;;;;;;2.10;1.70;;;13.10;75.80;;;;;;6087445;23;20802;-44
2023/04/27 00:47:41;;;;;;;2.27;1.70;;;13.10;75.80;;;;;;6086123;23;20498;-44
2023/04/27 00:50:10;;;;;;;2.70;1.90;;;13.10;76.00;;;;;;6086491;23;20368;-44
2023/04/27 00:52:39;;;;;;;2.40;1.93;;;13.10;75.90;;;;;;6085485;23;20447;-44
2023/04/27 00:55:09;;;;;;;3.60;2.37;;;13.10;75.90;;;;;;6086672;23;20423;-44
2023/04/27 00:57:40;;;;;;;3.67;2.20;;;13.10;75.80;;;;;;6084749;23;20463;-44
2023/04/27 01:00:12;;;;;;;3.67;2.47;;;13.10;75.80;;;;;;6086234;23;20407;-44
2023/04/27 01:02:41;;;;;;;2.83;1.80;;;13.10;75.70;;;;;;6085717;23;20444;-44
2023/04/27 01:05:10;;;;;;;3.00;2.07;;;13.10;75.70;;;;;;6086872;23;20415;-44
2023/04/27 01:07:39;;;;;;;5.00;2.20;;;13.10;75.70;;;;;;6084282;23;20454;-44
2023/04/27 01:10:09;;;;;;;4.63;2.57;;;13.10;75.80;;;;;;6085967;23;20922;-44
2023/04/27 01:12:37;;;;;;;2.77;1.60;;;13.10;75.80;;;;;;6084141;23;20436;-44
2023/04/27 01:15:07;;;;;;;5.60;2.00;;;13.10;75.70;;;;;;6087074;23;20458;-45
2023/04/27 01:17:37;;;;;;;3.57;2.10;;;13.10;75.80;;;;;;6085657;23;20428;-45
2023/04/27 01:20:09;;;;;;;4.93;2.10;;;13.10;75.70;;;;;;6085510;23;20373;-44
2023/04/27 01:22:38;;;;;;;3.37;2.00;;;13.10;76.90;;;;;;6085590;23;20998;-44
2023/04/27 01:25:09;;;;;;;2.87;2.07;;;13.10;75.70;;;;;;6087249;23;20412;-44
2023/04/27 01:27:38;;;;;;;4.17;2.23;;;13.10;75.60;;;;;;6084962;23;20750;-44
2023/04/27 01:30:07;;;;;;;2.60;1.60;;;13.10;75.80;;;;;;6062108;23;20399;-44
2023/04/27 01:32:37;;;;;;;3.30;1.93;;;13.10;75.70;;;;;;6085197;23;20935;-43
2023/04/27 01:35:06;;;;;;;3.60;1.80;;;13.10;75.80;;;;;;6087460;23;20395;-44
2023/04/27 01:37:35;;;;;;;3.77;2.20;;;13.10;75.90;;;;;;6083881;23;20969;-44
2023/04/27 01:40:05;;;;;;;3.60;2.07;;;13.10;75.80;;;;;;6086109;23;20388;-43
2023/04/27 01:42:36;;;;;;;3.57;1.70;;;13.10;75.70;;;;;;6085197;23;20471;-43
2023/04/27 01:45:05;;;;;;;3.17;2.47;;;13.10;75.70;;;;;;6063149;23;20426;-44
2023/04/27 01:47:34;;;;;;;2.40;2.00;;;13.10;75.80;;;;;;6085008;23;20458;-44
2023/04/27 01:50:02;;;;;;;2.80;2.50;;;13.10;75.90;;;;;;6086103;23;20400;-43
2023/04/27 01:52:31;;;;;;;2.97;1.80;;;13.00;75.70;;;;;;6085259;23;20466;-43
2023/04/27 01:54:59;;;;;;;4.23;2.30;;;13.00;75.70;;;;;;6086214;23;20486;-44
2023/04/27 01:57:28;;;;;;;2.40;1.60;;;13.00;75.70;;;;;;6085113;23;20459;-48
2023/04/27 01:59:58;;;;;;;3.40;2.27;;;13.00;75.60;;;;;;6085478;23;20891;-44
2023/04/27 02:02:27;;;;;;;2.90;1.90;;;13.00;75.70;;;;;;6085247;23;20442;-44
2023/04/27 02:04:56;;;;;;;2.83;1.97;;;13.00;75.60;;;;;;6086617;23;20396;-44
2023/04/27 02:07:26;;;;;;;3.70;2.00;;;13.00;75.60;;;;;;6084742;23;20444;-44
2023/04/27 02:09:56;;;;;;;2.77;1.80;;;13.00;75.60;;;;;;6086065;23;20475;-44
2023/04/27 02:12:25;;;;;;;3.90;2.03;;;13.00;75.70;;;;;;6084850;23;20518;-46
2023/04/27 02:14:53;;;;;;;5.93;1.87;;;13.00;75.70;;;;;;6086334;23;20428;-44
2023/04/27 02:17:25;;;;;;;4.00;1.80;;;13.00;75.70;;;;;;6085691;23;20515;-44
2023/04/27 02:19:54;;;;;;;3.77;2.07;;;13.00;75.80;;;;;;6086024;23;20426;-43
2023/04/27 02:22:22;;;;;;;2.10;1.60;;;13.00;75.80;;;;;;6084150;23;20804;-44
2023/04/27 02:24:51;;;;;;;3.50;2.40;;;13.00;75.60;;;;;;6085674;23;20390;-45
2023/04/27 02:27:21;;;;;;;3.57;2.00;;;13.00;75.60;;;;;;6084577;23;20448;-44
2023/04/27 02:29:50;;;;;;;2.90;2.00;;;13.00;75.60;;;;;;6085535;23;20407;-44
2023/04/27 02:32:19;;;;;;;2.40;1.90;;;13.00;75.70;;;;;;6085127;23;20781;-43
2023/04/27 02:34:49;;;;;;;5.10;1.93;;;13.00;75.70;;;;;;6086480;23;20410;-44
2023/04/27 02:37:17;;;;;;;3.93;2.33;;;13.00;76.00;;;;;;6084856;23;20464;-44
2023/04/27 02:39:47;;;;;;;3.30;2.27;;;13.00;76.00;;;;;;6085780;23;20426;-44
2023/04/27 02:42:16;;;;;;;3.87;2.20;;;13.00;75.90;;;;;;6084722;23;20436;-44
2023/04/27 02:44:44;;;;;;;2.70;1.90;;;13.00;75.70;;;;;;6086537;23;20480;-44
2023/04/27 02:47:13;;;;;;;2.60;1.80;;;13.00;75.60;;;;;;6084684;23;20793;-45
2023/04/27 02:49:43;;;;;;;3.93;2.00;;;13.00;75.70;;;;;;6086160;23;20396;-44
2023/04/27 02:52:13;;;;;;;5.40;2.47;;;13.00;75.80;;;;;;6085161;23;20510;-45
2023/04/27 02:54:41;;;;;;;3.13;2.17;;;13.00;75.70;;;;;;6085621;23;20384;-44
2023/04/27 02:57:10;;;;;;;2.43;2.10;;;13.00;75.80;;;;;;6085071;23;20439;-44
2023/04/27 02:59:38;;;;;;;4.30;1.93;;;13.00;75.80;;;;;;6086222;23;20781;-44
2023/04/27 03:02:07;;;;;;;3.20;1.90;;;13.00;75.70;;;;;;6084049;23;20443;-45
2023/04/27 03:04:37;;;;;;;3.43;2.00;;;13.00;75.70;;;;;;6085729;23;20403;-44
2023/04/27 03:07:06;;;;;;;3.50;2.67;;;13.00;75.60;;;;;;6084405;23;20452;-44
2023/04/27 03:09:36;;;;;;;2.47;2.00;;;13.00;75.80;;;;;;6086317;23;20406;-44
2023/04/27 03:12:05;;;;;;;3.30;2.23;;;13.00;76.00;;;;;;6084788;23;20514;-44
2023/04/27 03:14:34;;;;;;;4.50;2.13;;;12.90;75.90;;;;;;6085179;23;20754;-45
2023/04/27 03:17:02;;;;;;;2.77;2.13;;;12.90;75.90;;;;;;6085646;23;20827;-44
2023/04/27 03:19:31;;;;;;;4.20;2.13;;;12.90;75.80;;;;;;6086896;23;20388;-44
2023/04/27 03:21:59;;;;;;;6.50;2.33;;;12.90;75.80;;;;;;6085192;23;20527;-44
2023/04/27 03:24:28;;;;;;;2.50;1.90;;;12.90;75.80;;;;;;6086619;23;20404;-44
2023/04/27 03:26:58;;;;;;;2.53;1.83;;;12.90;75.80;;;;;;6085703;23;20440;-44
2023/04/27 03:29:26;;;;;;;4.37;2.40;;;12.90;75.70;;;;;;6085815;23;20418;-44
2023/04/27 03:31:55;;;;;;;3.60;2.13;;;12.90;75.70;;;;;;6085282;23;20446;-44
2023/04/27 03:34:24;;;;;;;3.30;2.13;;;12.90;75.70;;;;;;6086751;23;20376;-44
2023/04/27 03:36:52;;;;;;;6.00;2.37;;;12.90;75.70;;;;;;6085805;23;20443;-44
2023/04/27 03:39:21;;;;;;;2.70;2.40;;;12.90;75.50;;;;;;6088044;23;20399;-45
2023/04/27 03:41:49;;;;;;;3.13;2.23;;;12.90;75.80;;;;;;6086303;23;20439;-44
2023/04/27 03:44:20;;;;;;;2.70;1.73;;;12.90;75.80;;;;;;6086683;23;20420;-44
2023/04/27 03:46:48;;;;;;;2.40;1.93;;;12.90;75.80;;;;;;6084498;23;20477;-45
2023/04/27 03:49:17;;;;;;;3.40;2.40;;;12.90;75.70;;;;;;6086834;23;20745;-44
2023/04/27 03:51:45;;;;;;;2.90;2.33;;;12.90;75.70;;;;;;6085374;23;20921;-44
2023/04/27 03:54:15;;;;;;;3.37;2.20;;;12.90;75.70;;;;;;6086764;23;20490;-44
2023/04/27 03:56:44;;;;;;;2.40;2.13;;;12.90;75.70;;;;;;6086923;23;20415;-44
2023/04/27 03:59:13;;;;;;;2.10;1.90;;;12.90;75.70;;;;;;6086740;23;20404;-44
2023/04/27 04:01:50;;;;;;;4.57;2.30;;;12.90;75.90;;;;;;6085752;23;20439;-44
2023/04/27 04:04:20;;;;;;;3.50;2.00;;;12.90;75.70;;;;;;6087626;23;20434;-44
2023/04/27 04:06:49;;;;;;;3.23;2.90;;;12.80;75.60;;;;;;6085219;23;20531;-44
2023/04/27 04:09:18;;;;;;;2.50;1.90;;;12.80;75.60;;;;;;6087527;23;21168;-43
2023/04/27 04:11:49;;;;;;;2.50;1.77;;;12.80;75.50;;;;;;6085946;23;20489;-45
2023/04/27 04:14:18;;;;;;;3.60;2.23;;;12.90;75.60;;;;;;6085392;23;20898;-44
2023/04/27 04:16:47;;;;;;;5.70;2.80;;;12.80;75.50;;;;;;6086539;23;20498;-45
2023/04/27 04:19:17;;;;;;;2.77;2.13;;;12.80;75.60;;;;;;6086528;23;20395;-44
2023/04/27 04:21:48;;;;;;;2.70;2.07;;;12.80;75.60;;;;;;6085131;23;20454;-44
2023/04/27 04:24:16;;;;;;;2.90;2.30;;;12.80;75.60;;;;;;6086484;23;20934;-44
2023/04/27 04:26:46;;;;;;;3.03;2.10;;;12.80;75.60;;;;;;6087579;23;20507;-44
2023/04/27 04:29:14;;;;;;;3.13;1.90;;;12.80;75.60;;;;;;6085771;23;20424;-44
2023/04/27 04:31:43;;;;;;;2.43;1.80;;;12.80;75.50;;;;;;6085720;23;20443;-45
2023/04/27 04:34:13;;;;;;;4.73;2.13;;;12.80;75.40;;;;;;6086588;23;20419;-43
2023/04/27 04:36:43;;;;;;;4.50;2.10;;;12.80;75.50;;;;;;6087087;23;20427;-44
2023/04/27 04:39:12;;;;;;;4.83;2.87;;;12.80;75.80;;;;;;6084609;23;20863;-44
2023/04/27 04:41:41;;;;;;;2.97;2.27;;;12.80;75.60;;;;;;6086486;23;20432;-45
2023/04/27 04:44:12;;;;;;;4.10;2.60;;;12.80;75.70;;;;;;6086017;23;20840;-44
2023/04/27 04:46:41;;;;;;;2.90;2.13;;;12.80;75.60;;;;;;6085919;23;20493;-44
2023/04/27 04:49:10;;;;;;;3.83;2.47;;;12.80;75.70;;;;;;6085737;23;20428;-44
2023/04/27 04:51:44;;;;;;;2.70;2.27;;;12.80;75.50;;;;;;6084660;23;20440;-45
2023/04/27 04:54:13;;;;;;;3.37;2.30;;;12.80;75.70;;;;;;6085872;23;20383;-44
2023/04/27 04:56:42;;;;;;;3.03;2.60;;;12.80;75.70;;;;;;6086119;23;20459;-45
2023/04/27 04:59:11;;;;;;;5.60;2.30;;;12.80;75.70;;;;;;6086509;23;20365;-44
2023/04/27 05:01:39;;;;;;;2.70;2.10;;;12.80;75.70;;;;;;6087954;23;20467;-44
2023/04/27 05:04:08;;;;;;;5.00;2.00;;;12.80;75.50;;;;;;6087633;23;20388;-44
2023/04/27 05:06:37;;;;;;;2.30;2.10;;;12.80;75.70;;;;;;6062008;23;20443;-44
2023/04/27 05:09:07;;;;;;;2.70;2.10;;;12.80;75.50;;;;;;6086927;23;20913;-44
2023/04/27 05:11:35;;;;;;;3.30;2.23;;;12.80;75.60;;;;;;6086562;23;20861;-44
2023/04/27 05:14:04;;;;;;;3.40;2.30;;;12.80;75.50;;;;;;6086570;23;20851;-44
2023/04/27 05:16:33;;;;;;;3.17;2.53;;;12.80;75.60;;;;;;6087762;23;20424;-44
2023/04/27 05:19:02;;;;;;;2.87;2.30;;;12.80;75.50;;;;;;6086422;23;20442;-45
2023/04/27 05:21:30;;;;;;;3.40;2.30;;;12.80;75.40;;;;;;6084236;23;20446;-44
2023/04/27 05:23:59;;;;;;;4.27;2.30;;;12.80;75.30;;;;;;6087225;23;20400;-44
2023/04/27 05:26:29;;;;;;;3.13;2.10;;;12.80;75.60;;;;;;6087927;23;20531;-45
2023/04/27 05:28:58;;;;;;;3.17;2.20;;;12.80;75.70;;;;;;6086776;23;20420;-44
2023/04/27 05:31:26;;;;;;;4.43;2.43;;;12.80;75.60;;;;;;6086049;23;20452;-44
2023/04/27 05:33:55;;;;;;;2.93;2.63;;;12.80;75.70;;;;;;6087523;23;20380;-43
2023/04/27 05:36:24;;;;;;;3.77;2.60;;;12.80;75.70;;;;;;6087466;23;20503;-43
2023/04/27 05:38:52;;;;;;;2.87;2.10;;;12.70;75.60;;;;;;6087559;23;20494;-44
2023/04/27 05:41:22;;;;;;;3.60;2.17;;;12.80;75.70;;;;;;6086157;23;20961;-44
2023/04/27 05:43:52;;;;;;;2.93;2.30;;;12.80;75.70;;;;;;6085937;23;20399;-44
2023/04/27 05:46:21;;;;;;;3.50;2.20;;;12.80;75.70;;;;;;6087705;23;20419;-44
2023/04/27 05:48:50;;;;;;;4.10;2.20;;;12.80;75.80;;;;;;6086057;23;20432;-45
2023/04/27 05:51:18;;;;;;;3.03;1.90;;;12.80;75.70;;;;;;6084100;23;20497;-44
2023/04/27 05:53:47;;;;;;;3.27;2.47;;;12.80;75.70;;;;;;6086954;23;20396;-43
2023/04/27 05:56:15;;;;;;;2.60;1.80;;;12.80;75.60;;;;;;6086831;23;20812;-44
2023/04/27 05:58:44;;;;;;;4.40;2.20;;;12.80;75.70;;;;;;6086348;23;20381;-44
2023/04/27 06:01:14;;;;;;;3.70;2.23;;;12.80;75.60;;;;;;6083068;23;20466;-45
2023/04/27 06:03:42;;;;;;;3.20;2.53;;;12.80;75.60;;;;;;6086931;23;20700;-44
2023/04/27 06:06:11;;;;;;;4.07;2.10;;;12.80;75.50;;;;;;6086225;23;20485;-44
2023/04/27 06:08:40;;;;;;;3.43;1.90;;;12.70;75.40;;;;;;6084646;23;20431;-44
2023/04/27 06:11:08;;;;;;;3.37;2.70;;;12.70;75.40;;;;;;6084758;23;20799;-44
2023/04/27 06:13:37;;;;;;;3.43;1.90;;;12.80;75.40;;;;;;6086972;23;20389;-44
2023/04/27 06:16:06;;;;;;;3.10;2.63;;;12.80;75.30;;;;;;6087348;23;20451;-44
2023/04/27 06:18:36;;;;;;;7.13;3.07;;;12.70;74.50;;;;;;6087625;23;20928;-44
2023/04/27 06:21:05;;;;;;;3.20;2.20;;;12.70;74.70;;;;;;6086444;23;20432;-44
2023/04/27 06:23:34;;;;;;;3.67;2.87;;;12.70;75.00;;;;;;6089074;23;20986;-45
2023/04/27 06:26:03;;;;;;;3.13;2.40;;;12.70;74.90;;;;;;6087558;23;21339;-44
2023/04/27 06:28:31;;;;;;;3.40;2.40;;;12.70;75.00;;;;;;6086711;23;20784;-44
2023/04/27 06:30:59;;;;;;;4.23;2.10;;;12.70;75.20;;;;;;6088251;23;20424;-44
2023/04/27 06:33:28;;;;;;;3.30;2.47;;;12.70;74.90;;;;;;6062506;23;20419;-45
2023/04/27 06:35:58;;;;;;;4.10;2.90;;;12.70;74.80;;;;;;6085938;23;20491;-44
2023/04/27 06:38:26;;;;;;;4.50;3.80;;;12.70;74.20;;;;;;6087208;23;20380;-45
2023/04/27 06:40:55;;;;;;;4.43;2.77;;;12.70;74.60;;;;;;6085566;23;20436;-45
2023/04/27 06:43:23;;;;;;;6.07;3.43;;;12.70;74.50;;;;;;6086698;23;20396;-45
2023/04/27 06:45:51;;;;;;;4.07;3.13;;;12.70;73.90;;;;;;6087051;23;20412;-45
2023/04/27 06:48:20;;;;;;;4.70;3.70;;;12.80;73.60;;;;;;6086693;23;20871;-43
2023/04/27 06:50:48;;;;;;;5.07;3.03;;;12.80;73.10;;;;;;6085927;23;20477;-44
2023/04/27 06:53:18;;;;;;;5.23;2.53;;;12.80;73.20;;;;;;6085752;23;20396;-44
2023/04/27 06:55:47;;;;;;;4.07;2.70;;;12.80;72.80;;;;;;6086617;23;20903;-43
2023/04/27 06:58:15;;;;;;;4.90;3.33;;;12.80;72.80;;;;;;6086037;23;20752;-44
2023/04/27 07:00:44;;;;;;;4.83;3.20;;;12.80;72.90;;;;;;6110603;23;20712;-45
2023/04/27 07:03:13;;;;;;;3.90;3.47;;;12.80;73.20;;;;;;6087329;23;20456;-44
2023/04/27 07:05:42;;;;;;;3.63;2.50;;;12.80;72.90;;;;;;6085609;23;20435;-44
2023/04/27 07:08:10;;;;;;;3.13;2.37;;;12.80;73.30;;;;;;6086369;23;20391;-44
2023/04/27 07:10:40;;;;;;;4.10;3.03;;;12.80;73.50;;;;;;6085937;23;20922;-45
2023/04/27 07:13:08;;;;;;;3.10;2.80;;;12.90;73.60;;;;;;6087223;23;20863;-44
2023/04/27 07:15:39;;;;;;;3.97;2.60;;;12.90;73.70;;;;;;6087420;23;20443;-44
2023/04/27 07:18:07;;;;;;;4.10;2.93;;;12.90;73.80;;;;;;6087908;23;20388;-44
2023/04/27 07:20:38;;;;;;;3.33;2.33;;;12.90;74.00;;;;;;6087628;23;20442;-45
2023/04/27 07:23:06;;;;;;;6.53;2.60;;;12.90;73.80;;;;;;6087066;23;20883;-44
2023/04/27 07:25:35;;;;;;;2.90;2.20;;;12.90;73.80;;;;;;6089581;23;20746;-44
2023/04/27 07:28:04;;;;;;;4.20;2.57;;;12.90;73.90;;;;;;6087933;23;20424;-44
2023/04/27 07:30:35;;;;;;;4.10;2.80;;;12.90;74.00;;;;;;6088031;23;20462;-44
2023/04/27 07:33:03;;;;;;;3.77;2.37;;;12.90;74.20;;;;;;6087580;23;20433;-43
2023/04/27 07:35:32;;;;;;;5.50;2.70;;;12.90;73.80;;;;;;6087896;23;20444;-43
2023/04/27 07:38:01;;;;;;;3.37;2.40;;;12.90;73.80;;;;;;6087352;23;20957;-45
2023/04/27 07:40:31;;;;;;;3.70;2.60;;;12.90;73.70;;;;;;6088265;23;20412;-45
2023/04/27 07:43:00;;;;;;;2.80;2.30;;;13.00;73.90;;;;;;6086363;23;20439;-44
2023/04/27 07:45:31;;;;;;;3.87;2.60;;;13.00;73.80;;;;;;6088017;23;20412;-44
2023/04/27 07:48:01;;;;;;;3.13;2.70;;;13.00;73.90;;;;;;6087178;23;20404;-43
2023/04/27 07:50:32;;;;;;;3.17;2.10;;;13.00;74.00;;;;;;6087269;23;20448;-44
2023/04/27 07:53:02;;;;;;;3.13;2.60;;;13.00;73.90;;;;;;6087055;23;20761;-44
2023/04/27 07:55:30;;;;;;;2.37;1.83;;;13.00;73.90;;;;;;6087551;23;20411;-45
2023/04/27 07:57:59;;;;;;;2.83;2.17;;;13.00;74.00;;;;;;6086800;23;20519;-43
2023/04/27 08:00:28;;;;;;;5.47;2.97;;;13.00;73.80;;;;;;6088725;23;20372;-44
2023/04/27 08:02:57;;;;;;;3.53;2.30;;;13.00;74.10;;;;;;6086997;23;20432;-45
2023/04/27 08:05:25;;;;;;;3.27;2.37;;;13.00;74.10;;;;;;6088027;23;20475;-44
2023/04/27 08:07:55;;;;;;;2.47;1.90;;;13.00;73.90;;;;;;6086234;23;20431;-44
2023/04/27 08:10:24;;;;;;;4.13;2.63;;;13.00;74.00;;;;;;6087559;23;20420;-45
2023/04/27 08:12:52;;;;;;;6.47;2.43;;;13.00;74.00;;;;;;6085487;23;21071;-44
2023/04/27 08:15:21;;;;;;;3.13;2.40;;;13.00;74.00;;;;;;6088404;23;20798;-45
2023/04/27 08:17:51;;;;;;;4.10;2.60;;;13.00;74.00;;;;;;6086792;23;20458;-45
2023/04/27 08:20:19;;;;;;;3.40;2.07;;;13.00;73.80;;;;;;6088358;23;20388;-45
2023/04/27 08:22:50;;;;;;;3.13;2.70;;;13.10;74.00;;;;;;6085280;23;21067;-43
2023/04/27 08:25:19;;;;;;;3.27;2.20;;;13.00;73.90;;;;;;6088094;23;20411;-44
2023/04/27 08:27:47;;;;;;;2.57;2.20;;;13.00;74.00;;;;;;6085685;23;20443;-44
2023/04/27 08:30:16;;;;;;;3.90;2.00;;;13.00;73.90;;;;;;6088023;23;20427;-45
2023/04/27 08:32:44;;;;;;;2.70;2.30;;;13.00;74.10;;;;;;6086393;23;20918;-45
2023/04/27 08:35:14;;;;;;;3.27;2.47;;;13.00;74.00;;;;;;6087370;23;20739;-44
2023/04/27 08:37:43;;;;;;;4.07;2.37;;;13.10;75.30;;;;;;6085540;23;20882;-45
2023/04/27 08:40:12;;;;;;;4.23;2.27;;;13.00;74.00;;;;;;6087948;23;20381;-45
2023/04/27 08:42:53;;;;;;;4.27;3.50;;;13.00;73.90;;;;;;6085452;23;20458;-44
2023/04/27 08:45:23;;;;;;;6.17;2.60;;;13.10;73.80;;;;;;6089516;23;20737;-44
2023/04/27 08:47:51;;;;;;;2.90;2.10;;;13.10;73.70;;;;;;6085588;23;20471;-44
2023/04/27 08:50:22;;;;;;;2.53;1.90;;;13.10;73.90;;;;;;6088010;23;20428;-44
2023/04/27 08:52:52;;;;;;;3.07;2.40;;;13.10;73.90;;;;;;6086161;23;20604;-44
2023/04/27 08:55:20;;;;;;;3.30;2.60;;;13.10;73.90;;;;;;6088506;23;20424;-44
2023/04/27 08:57:56;;;;;;;3.80;2.60;;;13.10;73.90;;;;;;6085224;23;20456;-44
2023/04/27 09:00:27;;;;;;;4.70;3.13;;;13.10;74.10;;;;;;6111139;23;20866;-44
2023/04/27 09:02:55;;;;;;;3.87;2.73;;;13.10;73.70;;;;;;6110975;23;20439;-44
2023/04/27 09:05:26;;;;;;;9.73;7.10;;;13.10;73.80;;;;;;6087532;23;20426;-44
2023/04/27 09:07:59;;;;;;;14.37;10.80;;;13.10;68.20;;;;;;6085988;23;20474;-44
2023/04/27 09:10:28;;;;;;;10.50;7.50;;;12.90;62.60;;;;;;6214896;23;20420;-44
2023/04/27 09:12:58;;;;;;;9.03;7.53;;;12.90;65.30;;;;;;6087588;23;20434;-44
2023/04/27 09:15:28;;;;;;;9.57;7.00;;;12.90;67.30;;;;;;6087043;23;20511;-45
2023/04/27 09:17:57;;;;;;;9.80;6.40;;;12.90;67.50;;;;;;6086781;23;20438;-44
2023/04/27 09:20:27;;;;;;;6.37;5.30;;;13.00;68.70;;;;;;6087662;23;20385;-44
2023/04/27 09:22:56;;;;;;;6.63;5.30;;;13.00;69.40;;;;;;6085519;23;20436;-44
2023/04/27 09:25:27;;;;;;;8.27;6.10;;;13.00;70.00;;;;;;6086954;23;20416;-45
2023/04/27 09:27:56;;;;;;;6.57;5.43;;;13.00;70.50;;;;;;6086230;23;20432;-45
2023/04/27 09:30:26;;;;;;;8.30;6.00;;;13.00;70.80;;;;;;6087424;23;20416;-45
2023/04/27 09:32:55;;;;;;;6.50;5.73;;;13.00;71.00;;;;;;6086729;23;20431;-44
2023/04/27 09:35:25;;;;;;;6.90;4.80;;;13.00;71.20;;;;;;6087375;23;20503;-44
2023/04/27 09:37:56;;;;;;;8.00;4.20;;;13.00;71.40;;;;;;6086792;23;20535;-45
2023/04/27 09:40:26;;;;;;;7.13;5.80;;;13.00;71.20;;;;;;6087296;23;20414;-45
2023/04/27 09:42:56;;;;;;;4.70;4.10;;;13.00;71.40;;;;;;6085783;23;20427;-46
2023/04/27 09:45:25;;;;;;;7.40;5.20;;;13.00;71.50;;;;;;6087409;23;20990;-45
2023/04/27 09:47:53;;;;;;;5.80;4.03;;;13.00;71.70;;;;;;6086756;23;20493;-45
2023/04/27 09:50:22;;;;;;;6.23;5.50;;;13.00;71.70;;;;;;6085967;23;20404;-45
2023/04/27 09:52:50;;;;;;;5.30;4.23;;;13.00;71.80;;;;;;6086333;23;20986;-43
2023/04/27 09:55:27;;;;;;;6.50;4.63;;;13.00;71.80;;;;;;6088443;23;20468;-45
2023/04/27 09:58:08;;;;;;;5.03;3.90;;;13.00;71.90;;;;;;6085987;23;20435;-45
2023/04/27 10:00:50;;;;;;;5.20;4.30;;;13.00;72.00;;;;;;6085988;23;20385;-43
2023/04/27 10:03:26;;;;;;;5.57;3.63;;;13.00;71.90;;;;;;6087444;23;20886;-45
2023/04/27 10:06:49;;;;;;;5.30;4.27;;;13.00;71.80;;;;;;6086681;23;20420;-44
2023/04/27 10:09:24;;;;;;;5.47;3.90;;;13.00;71.60;;;;;;6086954;23;20431;-43
2023/04/27 10:12:13;;;;;;;5.43;4.10;;;13.00;71.90;;;;;;6086248;23;20493;-49
2023/04/27 10:14:49;;;;;;;4.90;4.40;;;13.00;71.90;;;;;;6088466;23;20403;-45
2023/04/27 10:17:19;;;;;;;4.50;3.50;;;13.00;71.90;;;;;;6086174;23;20555;-44
2023/04/27 10:19:55;;;;;;;4.83;3.60;;;13.00;71.90;;;;;;6086260;23;20966;-45
2023/04/27 10:22:39;;;;;;;4.70;3.67;;;13.00;71.90;;;;;;6085190;23;20534;-45
2023/04/27 10:25:17;;;;;;;4.30;2.97;;;13.00;72.00;;;;;;6087823;23;20488;-44
2023/04/27 10:27:51;;;;;;;6.77;3.30;;;13.00;72.00;;;;;;6085167;23;20450;-45
2023/04/27 10:30:21;;;;;;;3.93;3.53;;;13.00;71.90;;;;;;6086652;23;20387;-44
2023/04/27 10:32:54;;;;;;;5.80;4.00;;;13.10;72.00;;;;;;6085515;23;20439;-44
2023/04/27 10:35:32;;;;;;;5.63;3.83;;;13.10;71.70;;;;;;6087475;23;20451;-45
2023/04/27 10:38:07;;;;;;;4.23;3.80;;;13.10;71.70;;;;;;6085004;23;20494;-45
2023/04/27 10:40:36;;;;;;;5.47;4.30;;;13.10;71.80;;;;;;6087205;23;20415;-45
2023/04/27 10:43:11;;;;;;;5.87;3.90;;;13.10;71.60;;;;;;6085810;23;20503;-45
2023/04/27 10:45:40;;;;;;;5.67;4.97;;;13.10;72.00;;;;;;6087004;23;20457;-44
2023/04/27 10:48:08;;;;;;;4.80;3.83;;;13.10;71.40;;;;;;6085832;23;20432;-45
2023/04/27 10:50:38;;;;;;;7.20;3.57;;;13.10;71.70;;;;;;6086057;23;20755;-44
2023/04/27 10:53:09;;;;;;;6.27;4.57;;;13.10;72.00;;;;;;6085933;23;20524;-44
2023/04/27 10:55:38;;;;;;;5.40;4.20;;;13.10;71.50;;;;;;6086989;23;20426;-45
2023/04/27 10:58:09;;;;;;;6.80;4.67;;;13.10;71.80;;;;;;6085215;23;20424;-45
2023/04/27 11:00:42;;;;;;;4.83;3.53;;;13.10;71.80;;;;;;6062684;23;20405;-44
2023/04/27 11:03:15;;;;;;;6.00;3.80;;;13.10;71.80;;;;;;6087654;23;20454;-44
2023/04/27 11:05:45;;;;;;;5.57;4.27;;;13.10;71.80;;;;;;6086694;23;20498;-44
2023/04/27 11:08:15;;;;;;;4.10;3.60;;;13.10;71.90;;;;;;6087487;23;20537;-44
2023/04/27 11:10:46;;;;;;;5.33;4.00;;;13.10;71.90;;;;;;6086571;23;20391;-45
2023/04/27 11:13:17;;;;;;;4.67;3.47;;;13.10;71.90;;;;;;6086465;23;20420;-44
2023/04/27 11:15:47;;;;;;;6.27;4.10;;;13.10;71.90;;;;;;6086112;23;20408;-44
2023/04/27 11:18:17;;;;;;;5.10;3.87;;;13.10;72.10;;;;;;6087458;23;20377;-45
2023/04/27 11:20:48;;;;;;;6.10;3.83;;;13.10;71.70;;;;;;6086556;23;20386;-45
2023/04/27 11:23:27;;;;;;;4.50;3.53;;;13.10;71.60;;;;;;6088049;23;20926;-44
2023/04/27 11:25:56;;;;;;;3.63;3.20;;;13.10;72.00;;;;;;6086286;23;20408;-42
2023/04/27 11:28:26;;;;;;;6.30;3.90;;;13.10;72.30;;;;;;6110021;23;20415;-44
2023/04/27 11:30:58;;;;;;;5.13;3.20;;;13.10;71.90;;;;;;6085853;23;20385;-44
2023/04/27 11:33:27;;;;;;;5.00;3.70;;;13.10;71.60;;;;;;6087038;23;20428;-45
2023/04/27 11:35:56;;;;;;;4.43;3.23;;;13.10;71.90;;;;;;6086146;23;20415;-45
2023/04/27 11:38:25;;;;;;;3.87;3.03;;;13.10;71.90;;;;;;6086591;23;20450;-45
2023/04/27 11:41:01;;;;;;;5.20;4.50;;;13.20;72.10;;;;;;6085092;23;20383;-45
2023/04/27 11:43:31;;;;;;;3.67;3.37;;;13.20;72.10;;;;;;6086489;23;20430;-46
2023/04/27 11:46:03;;;;;;;5.60;3.10;;;13.20;72.10;;;;;;6087077;23;20408;-45
2023/04/27 11:48:31;;;;;;;4.50;3.63;;;13.20;71.80;;;;;;6086885;23;20916;-45
2023/04/27 11:51:00;;;;;;;4.13;3.00;;;13.20;72.10;;;;;;6085382;23;20375;-45
2023/04/27 11:53:34;;;;;;;3.83;2.97;;;13.20;72.20;;;;;;6086153;23;20427;-45
2023/04/27 11:56:04;;;;;;;4.07;3.00;;;13.20;72.50;;;;;;6086897;23;20422;-44
2023/04/27 11:58:36;;;;;;;4.93;3.60;;;13.20;72.40;;;;;;6088623;23;20380;-44
2023/04/27 12:01:05;;;;;;;4.30;3.60;;;13.20;72.10;;;;;;6087696;23;20376;-44
2023/04/27 12:03:33;;;;;;;5.70;2.93;;;13.20;72.10;;;;;;6087921;23;20941;-45
2023/04/27 12:06:03;;;;;;;5.60;4.03;;;13.20;72.20;;;;;;6088129;23;20447;-44
2023/04/27 12:08:52;;;;;;;3.30;2.60;;;13.20;72.00;;;;;;6087853;23;20380;-44
2023/04/27 12:11:20;;;;;;;3.97;3.17;;;13.20;72.20;;;;;;6086659;23;20485;-45
2023/04/27 12:13:51;;;;;;;5.93;3.73;;;13.20;72.30;;;;;;6086824;23;20431;-45
2023/04/27 12:16:21;;;;;;;3.97;2.90;;;13.20;72.10;;;;;;6087870;23;20415;-44
2023/04/27 12:18:50;;;;;;;4.83;3.20;;;13.20;72.10;;;;;;6089416;23;20400;-44
2023/04/27 12:21:19;;;;;;;5.60;4.50;;;13.20;72.20;;;;;;6086785;23;20385;-44
2023/04/27 12:23:47;;;;;;;5.47;3.70;;;13.20;72.10;;;;;;6088188;23;20415;-45
2023/04/27 12:26:16;;;;;;;3.37;2.97;;;13.20;71.80;;;;;;6087723;23;20879;-43
2023/04/27 12:28:44;;;;;;;3.90;3.23;;;13.30;72.10;;;;;;6086870;23;20399;-45
2023/04/27 12:31:17;;;;;;;6.00;4.13;;;13.30;71.90;;;;;;6086881;23;20502;-45
2023/04/27 12:33:48;;;;;;;4.70;3.90;;;13.30;72.10;;;;;;6087816;23;20424;-45
2023/04/27 12:36:16;;;;;;;4.87;4.10;;;13.30;72.10;;;;;;6087591;23;20470;-44
2023/04/27 12:38:45;;;;;;;5.20;3.40;;;13.30;71.50;;;;;;6088249;23;20864;-45
2023/04/27 12:41:13;;;;;;;5.87;3.27;;;13.30;71.90;;;;;;6089007;23;20889;-44
2023/04/27 12:43:44;;;;;;;3.00;2.70;;;13.30;72.20;;;;;;6087504;23;20490;-44
2023/04/27 12:46:15;;;;;;;6.10;4.50;;;13.30;72.10;;;;;;6087333;23;20436;-44
2023/04/27 12:48:47;;;;;;;5.80;4.30;;;13.30;71.60;;;;;;6088382;23;20694;-46
2023/04/27 12:51:15;;;;;;;4.30;3.40;;;13.30;71.70;;;;;;6089018;23;20419;-44
2023/04/27 12:53:43;;;;;;;3.70;2.90;;;13.30;72.10;;;;;;6087526;23;20462;-46
2023/04/27 12:56:12;;;;;;;3.90;3.07;;;13.30;72.20;;;;;;6088039;23;20542;-44
2023/04/27 12:58:40;;;;;;;4.83;3.57;;;13.30;72.20;;;;;;6086831;23;20770;-45